createdAt,value
2023-02-15T00:03:30.291Z,40.10
2023-02-15T00:07:32.188Z,31.43
2023-02-15T00:11:52.709Z,41.03
2023-02-15T00:15:54.600Z,58.40
2023-02-15T00:19:56.600Z,45.77
2023-02-15T00:24:00.335Z,33.80
2023-02-15T00:28:02.250Z,25.10
2023-02-15T00:32:04.397Z,28.70
2023-02-15T00:36:08.531Z,36.93
2023-02-15T00:40:10.849Z,24.13
2023-02-15T00:44:13.392Z,27.37
2023-02-15T00:48:15.485Z,25.80
2023-02-15T00:52:17.359Z,50.77
2023-02-15T00:56:19.577Z,44.33
2023-02-15T01:00:21.532Z,80.33
2023-02-15T01:04:23.473Z,32.80
2023-02-15T01:08:25.603Z,34.60
2023-02-15T01:12:27.568Z,29.87
2023-02-15T01:16:29.959Z,28.93
2023-02-15T01:20:37.685Z,23.80
2023-02-15T01:24:39.644Z,37.07
2023-02-15T01:28:41.545Z,22.07
2023-02-15T01:32:44.339Z,24.00
2023-02-15T01:36:46.282Z,34.80
2023-02-15T01:40:54.443Z,35.30
2023-02-15T01:44:58.826Z,47.73
2023-02-15T01:49:11.847Z,48.70
2023-02-15T01:53:28.091Z,27.73
2023-02-15T01:57:30.175Z,27.70
2023-02-15T02:01:32.728Z,21.80
2023-02-15T02:05:35.068Z,22.23
2023-02-15T02:09:37.880Z,33.60
2023-02-15T02:13:42.627Z,41.20
2023-02-15T02:18:10.546Z,28.73
2023-02-15T02:22:43.147Z,28.97
2023-02-15T02:27:00.009Z,25.90
2023-02-15T02:31:29.236Z,33.70
2023-02-15T02:35:52.381Z,23.87
2023-02-15T02:40:14.071Z,25.20
2023-02-15T02:44:38.373Z,25.27
2023-02-15T02:48:40.801Z,23.83
2023-02-15T02:52:46.954Z,22.70
2023-02-15T02:56:51.142Z,23.30
2023-02-15T03:01:14.348Z,24.83
2023-02-15T03:05:22.372Z,25.57
2023-02-15T03:09:43.851Z,23.40
2023-02-15T03:13:50.167Z,26.80
2023-02-15T03:18:03.703Z,22.17
2023-02-15T03:22:11.536Z,24.03
2023-02-15T03:26:14.024Z,21.23
2023-02-15T03:30:20.442Z,37.27
2023-02-15T03:34:22.460Z,32.57
2023-02-15T03:38:33.950Z,24.93
2023-02-15T03:42:40.468Z,44.70
2023-02-15T03:47:01.412Z,19.50
2023-02-15T03:51:30.182Z,28.90
2023-02-15T03:55:32.657Z,16.90
2023-02-15T03:59:53.143Z,19.03
2023-02-15T04:04:04.232Z,16.97
2023-02-15T04:08:06.668Z,17.97
2023-02-15T04:12:09.030Z,20.53
2023-02-15T04:16:10.883Z,16.93
2023-02-15T04:20:32.990Z,16.63
2023-02-15T04:24:53.418Z,43.40
2023-02-15T04:28:55.287Z,17.77
2023-02-15T04:32:58.206Z,44.60
2023-02-15T04:37:00.132Z,21.33
2023-02-15T04:41:02.001Z,27.73
2023-02-15T04:45:04.428Z,20.10
2023-02-15T04:49:06.522Z,16.43
2023-02-15T04:53:08.454Z,17.63
2023-02-15T04:57:10.393Z,17.47
2023-02-15T05:01:12.423Z,16.83
2023-02-15T05:05:16.106Z,26.67
2023-02-15T05:09:18.058Z,16.27
2023-02-15T05:13:22.798Z,24.57
2023-02-15T05:17:24.709Z,19.30
2023-02-15T05:21:26.839Z,20.27
2023-02-15T05:25:47.092Z,15.43
2023-02-15T05:29:49.178Z,23.53
2023-02-15T05:33:51.055Z,14.80
2023-02-15T05:37:53.038Z,14.53
2023-02-15T05:41:54.926Z,16.37
2023-02-15T05:45:56.926Z,15.57
2023-02-15T05:49:58.900Z,15.37
2023-02-15T05:54:00.896Z,15.10
2023-02-15T05:58:02.870Z,14.60
2023-02-15T06:02:04.892Z,18.27
2023-02-15T06:06:07.454Z,14.73
2023-02-15T06:10:09.732Z,19.53
2023-02-15T06:14:12.155Z,28.13
2023-02-15T06:18:14.101Z,15.53
2023-02-15T06:22:16.013Z,12.80
2023-02-15T06:26:17.874Z,16.17
2023-02-15T06:30:19.992Z,14.50
2023-02-15T06:34:21.946Z,15.03
2023-02-15T06:38:24.002Z,15.97
2023-02-15T06:42:26.429Z,17.73
2023-02-15T06:46:29.174Z,17.20
2023-02-15T06:50:31.157Z,21.57
2023-02-15T06:54:33.082Z,18.13
2023-02-15T06:58:35.974Z,17.87
2023-02-15T07:02:37.868Z,21.73
2023-02-15T07:06:39.821Z,16.20
2023-02-15T07:10:45.022Z,17.73
2023-02-15T07:14:46.907Z,20.50
2023-02-15T07:18:49.171Z,18.87
2023-02-15T07:22:51.950Z,19.97
2023-02-15T07:26:53.938Z,16.07
2023-02-15T07:30:55.861Z,17.03
2023-02-15T07:34:58.333Z,27.00
2023-02-15T07:39:00.207Z,18.67
2023-02-15T07:43:02.147Z,19.10
2023-02-15T07:47:04.042Z,23.57
2023-02-15T07:51:08.602Z,17.20
2023-02-15T07:55:13.348Z,23.80
2023-02-15T07:59:15.382Z,27.23
2023-02-15T08:03:17.462Z,29.93
2023-02-15T08:07:19.396Z,27.17
2023-02-15T08:11:26.687Z,27.27
2023-02-15T08:15:28.656Z,30.77
2023-02-15T08:19:32.893Z,29.13
2023-02-15T08:23:34.803Z,42.10
2023-02-15T08:27:36.728Z,35.57
2023-02-15T08:31:39.077Z,51.87
2023-02-15T08:35:41.121Z,54.13
2023-02-15T08:39:44.457Z,47.07
2023-02-15T08:43:48.661Z,50.97
2023-02-15T08:47:50.568Z,51.90
2023-02-15T08:51:52.491Z,61.27
2023-02-15T08:55:58.612Z,55.60
2023-02-15T09:00:00.552Z,57.07
2023-02-15T09:04:06.368Z,56.60
2023-02-15T09:08:08.351Z,41.67
2023-02-15T09:12:10.289Z,25.07
2023-02-15T09:16:12.287Z,24.10
2023-02-15T09:20:14.263Z,22.97
2023-02-15T09:24:17.894Z,20.73
2023-02-15T09:28:19.796Z,20.87
2023-02-15T09:32:23.063Z,24.33
2023-02-15T09:36:31.546Z,25.00
2023-02-15T09:40:41.930Z,23.57
2023-02-15T09:45:08.549Z,22.47
2023-02-15T09:49:34.978Z,23.70
2023-02-15T09:54:06.612Z,22.57
2023-02-15T09:58:23.886Z,23.53
2023-02-15T10:02:40.317Z,22.20
2023-02-15T10:06:49.758Z,22.97
2023-02-15T10:11:40.661Z,27.00
2023-02-15T10:16:08.990Z,25.10
2023-02-15T10:20:26.094Z,26.10
2023-02-15T10:24:50.216Z,28.83
2023-02-15T10:29:01.849Z,33.20
2023-02-15T10:33:09.723Z,27.23
2023-02-15T10:37:30.499Z,25.07
2023-02-15T10:41:59.175Z,38.53
2023-02-15T10:46:13.361Z,32.20
2023-02-15T10:50:25.810Z,33.43
2023-02-15T10:54:33.818Z,34.80
2023-02-15T10:58:51.326Z,34.03
2023-02-15T11:03:08.268Z,30.90
2023-02-15T11:07:22.449Z,35.60
2023-02-15T11:11:54.967Z,34.53
2023-02-15T11:16:18.353Z,44.10
2023-02-15T11:20:50.656Z,45.03
2023-02-15T11:24:55.435Z,48.00
2023-02-15T11:29:09.554Z,50.20
2023-02-15T11:33:25.411Z,46.40
2023-02-15T11:37:54.613Z,46.70
2023-02-15T11:42:05.788Z,45.00
2023-02-15T11:46:12.325Z,44.20
2023-02-15T11:50:19.283Z,39.77
2023-02-15T11:54:26.733Z,42.23
2023-02-15T11:58:37.622Z,36.23
2023-02-15T12:02:42.206Z,35.83
2023-02-15T12:06:53.057Z,40.17
2023-02-15T12:11:08.276Z,39.17
2023-02-15T12:15:13.225Z,39.70
2023-02-15T12:19:32.150Z,38.03
2023-02-15T12:23:35.820Z,40.87
2023-02-15T12:27:44.003Z,45.83
2023-02-15T12:31:49.044Z,47.63
2023-02-15T12:36:12.103Z,47.70
2023-02-15T12:40:24.080Z,50.00
2023-02-15T12:44:30.010Z,58.67
2023-02-15T12:48:31.977Z,62.23
2023-02-15T12:52:33.942Z,64.97
2023-02-15T12:56:35.863Z,62.80
2023-02-15T13:00:37.950Z,57.07
2023-02-15T13:04:49.800Z,57.07
2023-02-15T13:08:54.687Z,62.87
2023-02-15T13:12:58.747Z,56.80
2023-02-15T13:17:06.587Z,58.67
2023-02-15T13:21:19.575Z,71.60
2023-02-15T13:25:25.287Z,74.40
2023-02-15T13:29:36.154Z,66.50
2023-02-15T13:33:40.504Z,70.53
2023-02-15T13:38:04.350Z,72.13
2023-02-15T13:42:22.295Z,67.80
2023-02-15T13:47:05.588Z,71.30
2023-02-15T13:51:29.213Z,73.80
2023-02-15T13:55:40.040Z,72.93
2023-02-15T13:59:57.413Z,68.90
2023-02-15T14:04:20.902Z,67.37
2023-02-15T14:08:44.084Z,72.73
2023-02-15T14:12:52.053Z,64.57
2023-02-15T14:17:15.142Z,65.63
2023-02-15T14:21:27.128Z,69.10
2023-02-15T14:25:39.242Z,70.83
2023-02-15T14:30:00.592Z,71.57
2023-02-15T14:34:02.614Z,62.93
2023-02-15T14:38:10.821Z,61.73
2023-02-15T14:42:27.952Z,66.97
2023-02-15T14:46:38.576Z,65.97
2023-02-15T14:50:46.837Z,65.47
2023-02-15T14:54:48.764Z,71.50
2023-02-15T14:58:50.632Z,71.60
2023-02-15T15:02:53.756Z,63.33
2023-02-15T15:07:13.736Z,59.83
2023-02-15T15:11:43.040Z,58.03
2023-02-15T15:15:47.740Z,64.13
2023-02-15T15:19:52.229Z,66.27
2023-02-15T15:23:54.850Z,62.77
2023-02-15T15:27:56.996Z,61.77
2023-02-15T15:32:02.569Z,66.90
2023-02-15T15:36:10.471Z,67.43
2023-02-15T15:40:30.003Z,63.13
2023-02-15T15:45:11.812Z,59.90
2023-02-15T15:49:18.887Z,53.97
2023-02-15T15:53:26.360Z,55.87
2023-02-15T15:57:39.514Z,55.20
2023-02-15T16:01:44.239Z,58.10
2023-02-15T16:05:46.219Z,56.83
2023-02-15T16:09:59.649Z,67.50
2023-02-15T16:14:01.587Z,49.13
2023-02-15T16:18:04.399Z,48.83
2023-02-15T16:22:20.374Z,58.27
2023-02-15T16:26:49.827Z,71.63
2023-02-15T16:31:15.094Z,53.93
2023-02-15T16:35:20.095Z,45.57
2023-02-15T16:39:22.035Z,46.53
2023-02-15T16:43:31.587Z,48.60
2023-02-15T16:47:40.944Z,61.40
2023-02-15T16:51:45.827Z,51.30
2023-02-15T16:55:52.976Z,58.33
2023-02-15T16:59:58.956Z,73.07
2023-02-15T17:04:23.605Z,103.57
2023-02-15T17:08:35.564Z,77.87
2023-02-15T17:12:47.858Z,100.67
2023-02-15T17:16:55.271Z,88.60
2023-02-15T17:21:02.369Z,74.30
2023-02-15T17:25:05.471Z,72.70
2023-02-15T17:29:19.451Z,156.50
2023-02-15T17:33:36.815Z,105.87
2023-02-15T17:37:38.745Z,90.33
2023-02-15T17:41:40.631Z,59.73
2023-02-15T17:45:50.000Z,68.20
2023-02-15T17:49:53.445Z,61.87
2023-02-15T17:54:13.980Z,51.03
2023-02-15T17:58:19.559Z,51.67
2023-02-15T18:02:39.931Z,63.60
2023-02-15T18:07:02.351Z,64.03
2023-02-15T18:11:23.284Z,68.37
2023-02-15T18:15:26.036Z,93.70
2023-02-15T18:19:28.216Z,146.17
2023-02-15T18:23:30.245Z,114.97
2023-02-15T18:27:32.192Z,122.30
2023-02-15T18:31:34.229Z,98.13
2023-02-15T18:35:37.086Z,54.90
2023-02-15T18:39:49.909Z,98.20
2023-02-15T18:43:53.824Z,71.30
2023-02-15T18:47:56.061Z,107.17
2023-02-15T18:51:58.031Z,53.53
2023-02-15T18:56:00.010Z,74.63
2023-02-15T19:00:02.121Z,44.40
2023-02-15T19:04:04.164Z,58.50
2023-02-15T19:08:12.931Z,76.53
2023-02-15T19:12:15.026Z,44.27
2023-02-15T19:16:29.289Z,59.23
2023-02-15T19:20:38.809Z,41.33
2023-02-15T19:24:44.259Z,38.83
2023-02-15T19:28:46.388Z,38.13
2023-02-15T19:32:48.697Z,37.23
2023-02-15T19:36:53.340Z,77.20
2023-02-15T19:41:01.159Z,31.50
2023-02-15T19:45:06.015Z,29.23
2023-02-15T19:49:09.742Z,28.37
2023-02-15T19:53:31.945Z,60.67
2023-02-15T19:57:33.862Z,43.50
2023-02-15T20:01:35.816Z,52.77
2023-02-15T20:05:38.471Z,34.10
2023-02-15T20:09:41.684Z,42.17
2023-02-15T20:13:43.638Z,47.83
2023-02-15T20:17:45.670Z,46.30
2023-02-15T20:21:54.529Z,50.27
2023-02-15T20:25:59.502Z,70.40
2023-02-15T20:30:01.591Z,40.53
2023-02-15T20:34:03.611Z,37.03
2023-02-15T20:38:06.758Z,39.30
2023-02-15T20:42:12.898Z,39.37
2023-02-15T20:46:14.845Z,37.23
2023-02-15T20:50:21.873Z,48.17
2023-02-15T20:54:26.013Z,35.73
2023-02-15T20:58:30.339Z,42.23
2023-02-15T21:02:32.303Z,49.17
2023-02-15T21:06:34.165Z,32.30
2023-02-15T21:10:36.079Z,24.00
2023-02-15T21:14:38.067Z,20.37
2023-02-15T21:18:42.204Z,60.77
2023-02-15T21:22:44.490Z,43.27
2023-02-15T21:26:47.657Z,31.37
2023-02-15T21:30:50.989Z,24.20
2023-02-15T21:34:52.899Z,40.90
2023-02-15T21:38:55.057Z,64.10
2023-02-15T21:43:16.538Z,39.60
2023-02-15T21:47:49.532Z,54.37
2023-02-15T21:52:09.989Z,64.70
2023-02-15T21:56:20.374Z,38.67
2023-02-15T22:00:24.911Z,44.73
2023-02-15T22:04:29.457Z,32.13
2023-02-15T22:08:31.744Z,53.87
2023-02-15T22:12:33.712Z,127.63
2023-02-15T22:16:35.854Z,190.87
2023-02-15T22:20:37.878Z,154.37
2023-02-15T22:24:40.230Z,88.43
2023-02-15T22:28:42.982Z,181.53
2023-02-15T22:32:44.881Z,83.23
2023-02-15T22:36:46.787Z,36.80
2023-02-15T22:40:50.370Z,37.70
2023-02-15T22:44:55.085Z,27.37
2023-02-15T22:48:57.148Z,27.13
2023-02-15T22:53:03.690Z,80.63
2023-02-15T22:57:05.994Z,22.37
2023-02-15T23:01:24.986Z,35.77
2023-02-15T23:05:29.780Z,61.10
2023-02-15T23:09:31.737Z,62.70
2023-02-15T23:13:33.940Z,122.73
2023-02-15T23:17:35.909Z,103.87
2023-02-15T23:21:37.902Z,26.63
2023-02-15T23:25:41.000Z,51.63
2023-02-15T23:29:42.876Z,77.53
2023-02-15T23:33:45.808Z,35.70
2023-02-15T23:37:48.675Z,33.17
2023-02-15T23:41:51.198Z,43.80
2023-02-15T23:45:53.156Z,33.00
2023-02-15T23:49:55.081Z,44.37
2023-02-15T23:53:58.050Z,60.23
2023-02-15T23:58:00.244Z,49.43
